Portada
METAR-TAF:

METAR-TAF

Aeroports :

Abakan, Rússia

latitud: 53-45N, longitud: 091-24E, altitud: 245 m

Observació

L'informe es va fer fa 45 minuts, a les 01:30 UTC
Vent calma
Temperatura -12°C
Humitat 78%
Pressió 1022 hPa
Visibilitat: 9000 m
Núvols disperses a una alçada de 3500 ft, Cumulonimbus.

METAR: UNAA 140130Z 00000MPS 9000 SCT035CB M12/M15 Q1022 R02/450242 NOSIG RMK QFE744

Hora: 09:15 (02:15 UTC)

Pronòstic

L'informe es va fer fa 3 hores i 24 minuts, a les 22:51 UTC
Pronòstic vàlid del 14 a les 00 UTC al 14 a les 24 UTC
Vent 6 kt del Nord amb ràfegues de 19 kt
Visibilitat: 3200 m
Escasses núvols a una alçada de 500 ft
Cel ennuvolat a una alçada de 2000 ft, Cumulonimbus.
xàfecs de neu

TAF: UNAA 132251Z 1400/1424 35003G10MPS 3200 -SHSN FEW005 BKN020CB

Observacions i pronòstics meteorològics de més de 4000 aeroports (METAR i TAF).

Les estacions disponibles són els punts grocs i vermells al mapa.

Posi el ratolí al punt desitjat per veure el nom de l'estació.

Feu clic per veure les observacions i els pronòstics meteorològics.

Per canviar el mapa: feu clic els botons verds amb una creu de color negre per apropar; al botó verd amb un guió per allunyar la imatge; o en les fletxes verdes per a mapes adjacents.


METAR-TAF: